sensor_id;sensor_type;location;lat;lon;timestamp;pressure;altitude;pressure_sealevel;temperature;humidity
26719;BME280;14326;50.794;6.060;2023-04-24T00:02:59;98243.16;;;10.39;85.17
26719;BME280;14326;50.794;6.060;2023-04-24T00:05:27;98237.03;;;10.32;84.66
26719;BME280;14326;50.794;6.060;2023-04-24T00:11:20;98239.69;;;10.34;84.63
26719;BME280;14326;50.794;6.060;2023-04-24T00:14:05;98247.75;;;10.26;84.97
26719;BME280;14326;50.794;6.060;2023-04-24T00:19:45;98254.09;;;10.13;85.64
26719;BME280;14326;50.794;6.060;2023-04-24T00:22:25;98266.56;;;10.02;86.28
26719;BME280;14326;50.794;6.060;2023-04-24T00:27:52;98251.69;;;9.85;87.62
26719;BME280;14326;50.794;6.060;2023-04-24T00:30:20;98256.16;;;9.83;88.03
26719;BME280;14326;50.794;6.060;2023-04-24T00:32:46;98267.69;;;9.79;88.37
26719;BME280;14326;50.794;6.060;2023-04-24T00:35:20;98281.91;;;9.75;88.35
26719;BME280;14326;50.794;6.060;2023-04-24T00:37:48;98265.19;;;9.64;89.06
26719;BME280;14326;50.794;6.060;2023-04-24T00:40:15;98267.84;;;9.63;89.40
26719;BME280;14326;50.794;6.060;2023-04-24T00:56:10;98265.19;;;9.64;90.39
26719;BME280;14326;50.794;6.060;2023-04-24T01:10:10;98259.88;;;9.63;90.58
26719;BME280;14326;50.794;6.060;2023-04-24T01:12:45;98255.53;;;9.57;90.94
26719;BME280;14326;50.794;6.060;2023-04-24T01:15:13;98252.03;;;9.52;91.26
26719;BME280;14326;50.794;6.060;2023-04-24T01:17:51;98259.06;;;9.56;91.89
26719;BME280;14326;50.794;6.060;2023-04-24T01:20:19;98256.41;;;9.58;91.47
26719;BME280;14326;50.794;6.060;2023-04-24T01:22:48;98255.47;;;9.63;91.41
26719;BME280;14326;50.794;6.060;2023-04-24T01:25:16;98254.63;;;9.57;91.12
26719;BME280;14326;50.794;6.060;2023-04-24T01:27:43;98253.75;;;9.56;91.30
26719;BME280;14326;50.794;6.060;2023-04-24T01:30:11;98258.22;;;9.51;91.35
26719;BME280;14326;50.794;6.060;2023-04-24T01:32:41;98246.69;;;9.55;91.09
26719;BME280;14326;50.794;6.060;2023-04-24T01:35:10;98251.16;;;9.49;91.51
26719;BME280;14326;50.794;6.060;2023-04-24T01:37:37;98254.75;;;9.44;91.24
26719;BME280;14326;50.794;6.060;2023-04-24T01:40:07;98254.72;;;9.46;91.40
26719;BME280;14326;50.794;6.060;2023-04-24T01:42:36;98251.16;;;9.52;91.01
26719;BME280;14326;50.794;6.060;2023-04-24T01:45:05;98251.16;;;9.52;91.23
26719;BME280;14326;50.794;6.060;2023-04-24T01:47:46;98265.28;;;9.54;91.18
26719;BME280;14326;50.794;6.060;2023-04-24T01:50:14;98267.94;;;9.52;91.32
26719;BME280;14326;50.794;6.060;2023-04-24T01:52:41;98257.28;;;9.55;91.02
26719;BME280;14326;50.794;6.060;2023-04-24T01:58:19;98265.34;;;9.48;91.17
26719;BME280;14326;50.794;6.060;2023-04-24T02:01:05;98267.13;;;9.47;91.28
26719;BME280;14326;50.794;6.060;2023-04-24T02:04:05;98255.63;;;9.45;90.73
26719;BME280;14326;50.794;6.060;2023-04-24T02:06:39;98260.97;;;9.42;91.05
26719;BME280;14326;50.794;6.060;2023-04-24T02:09:22;98260.97;;;9.42;91.50
26719;BME280;14326;50.794;6.060;2023-04-24T02:11:51;98262.69;;;9.43;91.25
26719;BME280;14326;50.794;6.060;2023-04-24T02:14:21;98265.34;;;9.43;91.32
26719;BME280;14326;50.794;6.060;2023-04-24T02:17:06;98264.50;;;9.41;91.40
26719;BME280;14326;50.794;6.060;2023-04-24T02:19:38;98263.59;;;9.43;91.59
26719;BME280;14326;50.794;6.060;2023-04-24T02:22:06;98256.56;;;9.39;91.65
26719;BME280;14326;50.794;6.060;2023-04-24T02:24:33;98257.44;;;9.40;91.36
26719;BME280;14326;50.794;6.060;2023-04-24T02:27:02;98259.25;;;9.35;91.58
26719;BME280;14326;50.794;6.060;2023-04-24T02:29:42;98254.84;;;9.32;92.35
26719;BME280;14326;50.794;6.060;2023-04-24T02:32:09;98250.41;;;9.33;92.26
26719;BME280;14326;50.794;6.060;2023-04-24T02:34:37;98256.56;;;9.38;92.30
26719;BME280;14326;50.794;6.060;2023-04-24T02:37:04;98255.72;;;9.33;92.55
26719;BME280;14326;50.794;6.060;2023-04-24T02:39:31;98251.34;;;9.30;92.47
26719;BME280;14326;50.794;6.060;2023-04-24T02:41:58;98256.59;;;9.32;92.72
26719;BME280;14326;50.794;6.060;2023-04-24T02:44:27;98250.41;;;9.33;92.57
26719;BME280;14326;50.794;6.060;2023-04-24T02:46:54;98248.63;;;9.35;92.59
26719;BME280;14326;50.794;6.060;2023-04-24T02:49:21;98253.94;;;9.32;92.63
26719;BME280;14326;50.794;6.060;2023-04-24T02:51:48;98253.09;;;9.30;92.95
26719;BME280;14326;50.794;6.060;2023-04-24T02:54:15;98264.59;;;9.27;93.19
26719;BME280;14326;50.794;6.060;2023-04-24T02:56:43;98262.78;;;9.31;93.39
26719;BME280;14326;50.794;6.060;2023-04-24T02:59:17;98252.19;;;9.31;93.47
26719;BME280;14326;50.794;6.060;2023-04-24T03:03:33;98263.72;;;9.27;93.71
26719;BME280;14326;50.794;6.060;2023-04-24T03:04:53;98264.66;;;9.24;93.49
26719;BME280;14326;50.794;6.060;2023-04-24T03:07:22;98259.34;;;9.24;93.90
26719;BME280;14326;50.794;6.060;2023-04-24T03:10:00;98267.25;;;9.26;93.74
26719;BME280;14326;50.794;6.060;2023-04-24T03:12:30;98264.63;;;9.26;93.51
26719;BME280;14326;50.794;6.060;2023-04-24T03:14:58;98268.19;;;9.23;94.25
26719;BME280;14326;50.794;6.060;2023-04-24T03:17:26;98268.22;;;9.19;94.72
26719;BME280;14326;50.794;6.060;2023-04-24T03:19:54;98262.00;;;9.20;94.83
26719;BME280;14326;50.794;6.060;2023-04-24T03:22:24;98267.31;;;9.23;94.35
26719;BME280;14326;50.794;6.060;2023-04-24T03:25:03;98277.91;;;9.21;94.69
26719;BME280;14326;50.794;6.060;2023-04-24T03:27:53;98277.06;;;9.15;95.15
26719;BME280;14326;50.794;6.060;2023-04-24T03:30:35;98273.56;;;9.13;95.62
26719;BME280;14326;50.794;6.060;2023-04-24T03:33:21;98273.59;;;9.08;95.57
26719;BME280;14326;50.794;6.060;2023-04-24T03:36:11;98273.53;;;9.14;95.42
26719;BME280;14326;50.794;6.060;2023-04-24T03:39:02;98280.66;;;9.09;95.55
26719;BME280;14326;50.794;6.060;2023-04-24T03:41:40;98278.91;;;9.05;96.01
26719;BME280;14326;50.794;6.060;2023-04-24T03:44:20;98280.66;;;9.08;96.23
26719;BME280;14326;50.794;6.060;2023-04-24T03:46:47;98273.63;;;9.05;96.61
26719;BME280;14326;50.794;6.060;2023-04-24T03:49:16;98267.44;;;9.06;96.91
26719;BME280;14326;50.794;6.060;2023-04-24T03:51:43;98272.75;;;9.01;97.26
26719;BME280;14326;50.794;6.060;2023-04-24T03:54:13;98267.47;;;8.98;97.20
26719;BME280;14326;50.794;6.060;2023-04-24T03:56:40;98277.19;;;8.99;97.39
26719;BME280;14326;50.794;6.060;2023-04-24T03:59:07;98273.66;;;8.96;97.34
26719;BME280;14326;50.794;6.060;2023-04-24T04:01:34;98271.03;;;8.91;98.10
26719;BME280;14326;50.794;6.060;2023-04-24T04:04:05;98271.88;;;8.96;98.07
26719;BME280;14326;50.794;6.060;2023-04-24T04:06:37;98276.34;;;8.94;98.74
26719;BME280;14326;50.794;6.060;2023-04-24T04:09:14;98275.50;;;8.86;99.65
26719;BME280;14326;50.794;6.060;2023-04-24T04:11:41;98281.69;;;8.87;100.00
26719;BME280;14326;50.794;6.060;2023-04-24T04:14:08;98282.59;;;8.81;100.00
26719;BME280;14326;50.794;6.060;2023-04-24T04:16:35;98279.06;;;8.81;100.00
26719;BME280;14326;50.794;6.060;2023-04-24T04:19:04;98281.72;;;8.82;100.00
26719;BME280;14326;50.794;6.060;2023-04-24T04:21:31;98286.13;;;8.82;100.00
26719;BME280;14326;50.794;6.060;2023-04-24T04:24:00;98284.38;;;8.81;100.00
26719;BME280;14326;50.794;6.060;2023-04-24T04:26:27;98288.81;;;8.76;100.00
26719;BME280;14326;50.794;6.060;2023-04-24T04:28:58;98287.94;;;8.74;100.00
26719;BME280;14326;50.794;6.060;2023-04-24T04:31:26;98294.16;;;8.71;100.00
26719;BME280;14326;50.794;6.060;2023-04-24T04:34:04;98290.59;;;8.74;100.00
26719;BME280;14326;50.794;6.060;2023-04-24T04:36:31;98308.28;;;8.67;100.00
26719;BME280;14326;50.794;6.060;2023-04-24T04:39:03;98304.78;;;8.63;100.00
26719;BME280;14326;50.794;6.060;2023-04-24T04:41:36;98309.19;;;8.60;100.00
26719;BME280;14326;50.794;6.060;2023-04-24T04:44:06;98312.75;;;8.57;100.00
26719;BME280;14326;50.794;6.060;2023-04-24T04:46:34;98310.09;;;8.59;100.00
26719;BME280;14326;50.794;6.060;2023-04-24T04:49:02;98305.69;;;8.59;100.00
26719;BME280;14326;50.794;6.060;2023-04-24T04:51:32;98317.13;;;8.60;100.00
26719;BME280;14326;50.794;6.060;2023-04-24T04:53:59;98313.63;;;8.56;100.00
26719;BME280;14326;50.794;6.060;2023-04-24T04:56:28;98318.94;;;8.59;100.00
26719;BME280;14326;50.794;6.060;2023-04-24T04:58:55;98320.69;;;8.57;100.00
26719;BME280;14326;50.794;6.060;2023-04-24T05:01:36;98318.06;;;8.51;100.00
26719;BME280;14326;50.794;6.060;2023-04-24T05:04:03;98326.91;;;8.52;100.00
26719;BME280;14326;50.794;6.060;2023-04-24T05:06:40;98321.63;;;8.46;100.00
26719;BME280;14326;50.794;6.060;2023-04-24T05:11:54;98314.56;;;8.48;100.00
26719;BME280;14326;50.794;6.060;2023-04-24T05:14:21;98318.97;;;8.47;100.00
26719;BME280;14326;50.794;6.060;2023-04-24T05:16:55;98325.16;;;8.45;100.00
26719;BME280;14326;50.794;6.060;2023-04-24T05:19:38;98328.66;;;8.50;100.00
26719;BME280;14326;50.794;6.060;2023-04-24T05:22:31;98331.31;;;8.51;100.00
26719;BME280;14326;50.794;6.060;2023-04-24T05:25:02;98336.63;;;8.50;100.00
26719;BME280;14326;50.794;6.060;2023-04-24T05:27:30;98328.66;;;8.50;100.00
26719;BME280;14326;50.794;6.060;2023-04-24T05:29:57;98339.28;;;8.48;100.00
26719;BME280;14326;50.794;6.060;2023-04-24T05:32:45;98342.84;;;8.47;100.00
26719;BME280;14326;50.794;6.060;2023-04-24T05:35:20;98342.84;;;8.34;100.00
26719;BME280;14326;50.794;6.060;2023-04-24T05:37:52;98356.97;;;8.30;100.00
26719;BME280;14326;50.794;6.060;2023-04-24T05:40:18;98360.53;;;8.24;100.00
26719;BME280;14326;50.794;6.060;2023-04-24T05:42:47;98349.03;;;8.23;100.00
26719;BME280;14326;50.794;6.060;2023-04-24T05:45:21;98370.22;;;8.23;100.00
26719;BME280;14326;50.794;6.060;2023-04-24T05:47:55;98371.09;;;8.22;100.00
26719;BME280;14326;50.794;6.060;2023-04-24T05:50:22;98378.16;;;8.22;100.00
26719;BME280;14326;50.794;6.060;2023-04-24T05:52:49;98375.50;;;8.30;100.00
26719;BME280;14326;50.794;6.060;2023-04-24T05:55:16;98366.69;;;8.26;100.00
26719;BME280;14326;50.794;6.060;2023-04-24T05:57:43;98377.28;;;8.28;100.00
26719;BME280;14326;50.794;6.060;2023-04-24T06:00:13;98371.97;;;8.29;100.00
26719;BME280;14326;50.794;6.060;2023-04-24T06:02:41;98380.84;;;8.36;100.00
26719;BME280;14326;50.794;6.060;2023-04-24T06:05:08;98381.72;;;8.30;100.00
26719;BME280;14326;50.794;6.060;2023-04-24T06:07:37;98394.97;;;8.33;100.00
26719;BME280;14326;50.794;6.060;2023-04-24T06:10:05;98384.38;;;8.35;100.00
26719;BME280;14326;50.794;6.060;2023-04-24T06:12:32;98390.53;;;8.37;100.00
26719;BME280;14326;50.794;6.060;2023-04-24T06:15:05;98397.63;;;8.35;100.00
26719;BME280;14326;50.794;6.060;2023-04-24T06:17:34;98386.13;;;8.34;100.00
26719;BME280;14326;50.794;6.060;2023-04-24T06:20:05;98400.25;;;8.32;100.00
26719;BME280;14326;50.794;6.060;2023-04-24T06:22:34;98401.13;;;8.34;100.00
26719;BME280;14326;50.794;6.060;2023-04-24T06:25:12;98405.56;;;8.30;100.00
26719;BME280;14326;50.794;6.060;2023-04-24T06:28:09;98411.72;;;8.34;100.00
26719;BME280;14326;50.794;6.060;2023-04-24T06:31:01;98412.59;;;8.31;100.00
26719;BME280;14326;50.794;6.060;2023-04-24T06:33:34;98418.81;;;8.35;100.00
26719;BME280;14326;50.794;6.060;2023-04-24T06:36:01;98418.81;;;8.36;100.00
26719;BME280;14326;50.794;6.060;2023-04-24T06:38:29;98424.09;;;8.35;100.00
26719;BME280;14326;50.794;6.060;2023-04-24T06:40:56;98427.59;;;8.28;100.00
26719;BME280;14326;50.794;6.060;2023-04-24T06:43:25;98419.69;;;8.25;100.00
26719;BME280;14326;50.794;6.060;2023-04-24T06:45:52;98426.72;;;8.27;100.00
26719;BME280;14326;50.794;6.060;2023-04-24T06:48:21;98443.50;;;8.25;100.00
26719;BME280;14326;50.794;6.060;2023-04-24T06:50:49;98442.63;;;8.27;100.00
26719;BME280;14326;50.794;6.060;2023-04-24T06:53:16;98447.03;;;8.27;100.00
26719;BME280;14326;50.794;6.060;2023-04-24T06:55:43;98467.34;;;8.31;100.00
26719;BME280;14326;50.794;6.060;2023-04-24T06:58:15;98475.31;;;8.25;100.00
26719;BME280;14326;50.794;6.060;2023-04-24T07:00:58;98477.94;;;8.26;100.00
26719;BME280;14326;50.794;6.060;2023-04-24T07:03:53;98478.81;;;8.20;100.00
26719;BME280;14326;50.794;6.060;2023-04-24T07:06:27;98477.03;;;8.19;100.00
26719;BME280;14326;50.794;6.060;2023-04-24T07:09:17;98478.81;;;8.19;100.00
26719;BME280;14326;50.794;6.060;2023-04-24T07:12:00;98478.81;;;8.23;100.00
26719;BME280;14326;50.794;6.060;2023-04-24T07:14:32;98480.59;;;8.25;100.00
26719;BME280;14326;50.794;6.060;2023-04-24T07:17:00;98483.22;;;8.21;100.00
26719;BME280;14326;50.794;6.060;2023-04-24T07:19:42;98481.44;;;8.19;100.00
26719;BME280;14326;50.794;6.060;2023-04-24T07:22:38;98484.09;;;8.14;100.00
26719;BME280;14326;50.794;6.060;2023-04-24T07:25:35;98496.47;;;8.15;100.00
26719;BME280;14326;50.794;6.060;2023-04-24T07:28:30;98513.22;;;8.14;100.00
26719;BME280;14326;50.794;6.060;2023-04-24T07:31:24;98523.81;;;8.14;100.00
26719;BME280;14326;50.794;6.060;2023-04-24T07:34:37;98538.81;;;7.96;100.00
26719;BME280;14326;50.794;6.060;2023-04-24T07:37:07;98545.88;;;8.01;100.00
26719;BME280;14326;50.794;6.060;2023-04-24T07:39:55;98549.44;;;8.00;100.00
26719;BME280;14326;50.794;6.060;2023-04-24T07:42:24;98553.81;;;7.97;100.00
26719;BME280;14326;50.794;6.060;2023-04-24T07:44:55;98557.38;;;8.00;100.00
26719;BME280;14326;50.794;6.060;2023-04-24T07:47:33;98554.72;;;7.99;100.00
26719;BME280;14326;50.794;6.060;2023-04-24T07:50:02;98567.94;;;7.97;100.00
26719;BME280;14326;50.794;6.060;2023-04-24T07:52:38;98575.00;;;8.01;100.00
26719;BME280;14326;50.794;6.060;2023-04-24T07:55:26;98579.44;;;8.01;100.00
26719;BME280;14326;50.794;6.060;2023-04-24T07:58:13;98575.91;;;8.03;100.00
26719;BME280;14326;50.794;6.060;2023-04-24T08:00:42;98578.53;;;7.99;100.00
26719;BME280;14326;50.794;6.060;2023-04-24T08:03:20;98574.13;;;8.02;100.00
26719;BME280;14326;50.794;6.060;2023-04-24T08:05:51;98589.16;;;8.06;100.00
26719;BME280;14326;50.794;6.060;2023-04-24T08:08:24;98587.41;;;8.11;100.00
26719;BME280;14326;50.794;6.060;2023-04-24T08:10:59;98583.84;;;8.14;100.00
26719;BME280;14326;50.794;6.060;2023-04-24T08:13:26;98590.94;;;8.16;100.00
26719;BME280;14326;50.794;6.060;2023-04-24T08:15:53;98589.19;;;8.18;100.00
26719;BME280;14326;50.794;6.060;2023-04-24T08:18:19;98599.78;;;8.23;100.00
26719;BME280;14326;50.794;6.060;2023-04-24T08:20:46;98598.88;;;8.21;100.00
26719;BME280;14326;50.794;6.060;2023-04-24T08:23:13;98610.38;;;8.23;100.00
26719;BME280;14326;50.794;6.060;2023-04-24T08:25:39;98603.31;;;8.23;100.00
26719;BME280;14326;50.794;6.060;2023-04-24T08:28:10;98614.81;;;8.32;100.00
26719;BME280;14326;50.794;6.060;2023-04-24T08:30:54;98630.75;;;8.35;100.00
26719;BME280;14326;50.794;6.060;2023-04-24T08:33:21;98638.69;;;8.44;100.00
26719;BME280;14326;50.794;6.060;2023-04-24T08:35:47;98643.13;;;8.49;100.00
26719;BME280;14326;50.794;6.060;2023-04-24T08:38:15;98639.59;;;8.50;100.00
26719;BME280;14326;50.794;6.060;2023-04-24T08:40:52;98642.22;;;8.44;100.00
26719;BME280;14326;50.794;6.060;2023-04-24T08:43:43;98648.41;;;8.36;100.00
26719;BME280;14326;50.794;6.060;2023-04-24T08:46:12;98651.94;;;8.41;100.00
26719;BME280;14326;50.794;6.060;2023-04-24T08:48:42;98653.69;;;8.39;100.00
26719;BME280;14326;50.794;6.060;2023-04-24T08:51:08;98659.00;;;8.45;100.00
26719;BME280;14326;50.794;6.060;2023-04-24T08:53:36;98664.31;;;8.39;100.00
26719;BME280;14326;50.794;6.060;2023-04-24T08:56:03;98663.44;;;8.41;100.00
26719;BME280;14326;50.794;6.060;2023-04-24T08:58:35;98658.16;;;8.47;100.00
26719;BME280;14326;50.794;6.060;2023-04-24T09:01:05;98673.16;;;8.47;100.00
26719;BME280;14326;50.794;6.060;2023-04-24T09:03:33;98669.59;;;8.43;100.00
26719;BME280;14326;50.794;6.060;2023-04-24T09:06:01;98675.78;;;8.41;100.00
26719;BME280;14326;50.794;6.060;2023-04-24T09:08:29;98677.56;;;8.40;100.00
26719;BME280;14326;50.794;6.060;2023-04-24T09:10:57;98679.31;;;8.43;100.00
26719;BME280;14326;50.794;6.060;2023-04-24T09:13:28;98684.63;;;8.44;100.00
26719;BME280;14326;50.794;6.060;2023-04-24T09:15:56;98687.28;;;8.49;100.00
26719;BME280;14326;50.794;6.060;2023-04-24T09:18:26;98697.91;;;8.52;100.00
26719;BME280;14326;50.794;6.060;2023-04-24T09:21:00;98691.72;;;8.50;100.00
26719;BME280;14326;50.794;6.060;2023-04-24T09:23:28;98701.47;;;8.58;100.00
26719;BME280;14326;50.794;6.060;2023-04-24T09:25:55;98709.41;;;8.65;100.00
26719;BME280;14326;50.794;6.060;2023-04-24T09:28:25;98712.09;;;8.71;100.00
26719;BME280;14326;50.794;6.060;2023-04-24T09:31:04;98716.50;;;8.76;100.00
26719;BME280;14326;50.794;6.060;2023-04-24T09:33:32;98726.22;;;8.80;100.00
26719;BME280;14326;50.794;6.060;2023-04-24T09:35:58;98732.41;;;8.85;100.00
26719;BME280;14326;50.794;6.060;2023-04-24T09:38:43;98730.69;;;8.89;100.00
26719;BME280;14326;50.794;6.060;2023-04-24T09:41:17;98740.38;;;8.87;100.00
26719;BME280;14326;50.794;6.060;2023-04-24T09:44:12;98746.56;;;8.92;100.00
26719;BME280;14326;50.794;6.060;2023-04-24T09:47:09;98749.25;;;8.95;100.00
26719;BME280;14326;50.794;6.060;2023-04-24T09:49:49;98751.00;;;9.03;100.00
26719;BME280;14326;50.794;6.060;2023-04-24T09:52:27;98750.16;;;9.12;100.00
26719;BME280;14326;50.794;6.060;2023-04-24T09:54:53;98755.47;;;9.23;100.00
26719;BME280;14326;50.794;6.060;2023-04-24T09:57:21;98751.91;;;9.33;100.00
26719;BME280;14326;50.794;6.060;2023-04-24T09:59:53;98758.09;;;9.42;100.00
26719;BME280;14326;50.794;6.060;2023-04-24T10:02:21;98756.34;;;9.66;100.00
26719;BME280;14326;50.794;6.060;2023-04-24T10:04:54;98759.81;;;10.01;100.00
26719;BME280;14326;50.794;6.060;2023-04-24T10:07:21;98751.75;;;10.35;100.00
26719;BME280;14326;50.794;6.060;2023-04-24T10:09:49;98752.53;;;10.59;100.00
26719;BME280;14326;50.794;6.060;2023-04-24T10:12:16;98759.50;;;10.79;100.00
26719;BME280;14326;50.794;6.060;2023-04-24T10:14:46;98761.16;;;10.98;100.00
26719;BME280;14326;50.794;6.060;2023-04-24T10:17:15;98775.41;;;10.91;100.00
26719;BME280;14326;50.794;6.060;2023-04-24T10:19:44;98776.28;;;10.93;100.00
26719;BME280;14326;50.794;6.060;2023-04-24T10:22:12;98768.22;;;11.02;100.00
26719;BME280;14326;50.794;6.060;2023-04-24T10:24:42;98762.69;;;11.34;98.52
26719;BME280;14326;50.794;6.060;2023-04-24T10:27:11;98766.00;;;11.63;100.00
26719;BME280;14326;50.794;6.060;2023-04-24T10:29:43;98774.13;;;11.46;94.52
26719;BME280;14326;50.794;6.060;2023-04-24T10:32:17;98777.81;;;11.27;93.65
26719;BME280;14326;50.794;6.060;2023-04-24T10:35:15;98775.25;;;11.15;95.09
26719;BME280;14326;50.794;6.060;2023-04-24T10:37:54;98788.63;;;11.04;96.55
26719;BME280;14326;50.794;6.060;2023-04-24T10:40:33;98783.41;;;10.88;97.45
26719;BME280;14326;50.794;6.060;2023-04-24T10:43:03;98775.47;;;10.82;99.08
26719;BME280;14326;50.794;6.060;2023-04-24T10:45:41;98787.03;;;10.76;96.73
26719;BME280;14326;50.794;6.060;2023-04-24T10:48:43;98802.09;;;10.73;98.98
26719;BME280;14326;50.794;6.060;2023-04-24T10:51:16;98790.63;;;10.64;98.27
26719;BME280;14326;50.794;6.060;2023-04-24T10:54:34;98791.50;;;10.60;97.98
26719;BME280;14326;50.794;6.060;2023-04-24T10:57:28;98796.91;;;10.45;99.71
26719;BME280;14326;50.794;6.060;2023-04-24T11:00:21;98811.13;;;10.32;100.00
26719;BME280;14326;50.794;6.060;2023-04-24T11:03:05;98813.78;;;10.15;100.00
26719;BME280;14326;50.794;6.060;2023-04-24T11:06:02;98820.00;;;10.07;100.00
26719;BME280;14326;50.794;6.060;2023-04-24T11:08:43;98821.75;;;10.15;100.00
26719;BME280;14326;50.794;6.060;2023-04-24T11:11:28;98813.75;;;10.47;100.00
26719;BME280;14326;50.794;6.060;2023-04-24T11:14:21;98819.81;;;10.74;100.00
26719;BME280;14326;50.794;6.060;2023-04-24T11:16:58;98832.19;;;10.85;100.00
26719;BME280;14326;50.794;6.060;2023-04-24T11:24:50;98830.13;;;11.31;95.01
26719;BME280;14326;50.794;6.060;2023-04-24T11:32:26;98830.06;;;11.45;90.13
26719;BME280;14326;50.794;6.060;2023-04-24T11:34:55;98846.97;;;11.39;88.11
26719;BME280;14326;50.794;6.060;2023-04-24T11:37:34;98845.19;;;11.40;86.89
26719;BME280;14326;50.794;6.060;2023-04-24T11:40:09;98844.28;;;11.39;86.87
26719;BME280;14326;50.794;6.060;2023-04-24T11:42:39;98858.47;;;11.43;83.71
26719;BME280;14326;50.794;6.060;2023-04-24T11:45:10;98858.28;;;11.69;84.79
26719;BME280;14326;50.794;6.060;2023-04-24T11:47:37;98852.94;;;11.78;83.85
26719;BME280;14326;50.794;6.060;2023-04-24T11:50:06;98852.94;;;11.76;84.47
26719;BME280;14326;50.794;6.060;2023-04-24T11:52:33;98868.00;;;11.73;82.81
26719;BME280;14326;50.794;6.060;2023-04-24T11:55:14;98852.13;;;11.65;80.68
26719;BME280;14326;50.794;6.060;2023-04-24T11:58:09;98860.06;;;11.70;81.78
26719;BME280;14326;50.794;6.060;2023-04-24T12:01:11;98861.78;;;11.83;80.60
26719;BME280;14326;50.794;6.060;2023-04-24T12:06:27;98865.28;;;11.86;81.65
26719;BME280;14326;50.794;6.060;2023-04-24T12:08:54;98867.00;;;11.95;82.25
26719;BME280;14326;50.794;6.060;2023-04-24T12:11:24;98877.63;;;11.98;82.29
26719;BME280;14326;50.794;6.060;2023-04-24T12:19:10;98885.97;;;11.46;84.36
26719;BME280;14326;50.794;6.060;2023-04-24T12:21:36;98881.66;;;11.20;85.19
26719;BME280;14326;50.794;6.060;2023-04-24T12:24:06;98880.75;;;11.30;86.37
26719;BME280;14326;50.794;6.060;2023-04-24T12:26:34;98873.53;;;11.47;85.24
26719;BME280;14326;50.794;6.060;2023-04-24T12:29:03;98890.28;;;11.63;86.55
26719;BME280;14326;50.794;6.060;2023-04-24T12:31:32;98884.94;;;11.69;84.62
26719;BME280;14326;50.794;6.060;2023-04-24T12:34:00;98873.38;;;11.74;84.46
26719;BME280;14326;50.794;6.060;2023-04-24T12:36:35;98893.63;;;11.98;82.89
26719;BME280;14326;50.794;6.060;2023-04-24T12:39:03;98883.56;;;12.29;83.06
26719;BME280;14326;50.794;6.060;2023-04-24T12:42:02;98887.97;;;12.31;80.38
26719;BME280;14326;50.794;6.060;2023-04-24T12:45:20;98894.41;;;12.12;79.88
26719;BME280;14326;50.794;6.060;2023-04-24T12:48:18;98891.88;;;11.94;78.78
26719;BME280;14326;50.794;6.060;2023-04-24T12:50:58;98899.09;;;11.78;80.73
26719;BME280;14326;50.794;6.060;2023-04-24T12:53:38;98904.47;;;11.69;82.34
26719;BME280;14326;50.794;6.060;2023-04-24T12:56:22;98898.31;;;11.60;81.18
26719;BME280;14326;50.794;6.060;2023-04-24T12:59:03;98906.38;;;11.44;81.89
26719;BME280;14326;50.794;6.060;2023-04-24T13:01:40;98916.16;;;11.45;80.55
26719;BME280;14326;50.794;6.060;2023-04-24T13:04:32;98920.56;;;11.51;80.04
26719;BME280;14326;50.794;6.060;2023-04-24T13:07:15;98912.41;;;11.72;79.10
26719;BME280;14326;50.794;6.060;2023-04-24T13:09:42;98923.94;;;11.82;79.72
26719;BME280;14326;50.794;6.060;2023-04-24T13:12:10;98918.53;;;11.94;79.00
26719;BME280;14326;50.794;6.060;2023-04-24T13:14:38;98916.75;;;11.95;79.56
26719;BME280;14326;50.794;6.060;2023-04-24T13:17:18;98913.25;;;11.85;78.56
26719;BME280;14326;50.794;6.060;2023-04-24T13:19:50;98924.75;;;11.92;77.84
26719;BME280;14326;50.794;6.060;2023-04-24T13:22:25;98914.09;;;11.92;78.30
26719;BME280;14326;50.794;6.060;2023-04-24T13:24:57;98925.63;;;11.92;75.81
26719;BME280;14326;50.794;6.060;2023-04-24T13:27:37;98919.47;;;11.88;74.37
26719;BME280;14326;50.794;6.060;2023-04-24T13:30:06;98923.03;;;11.84;73.60
26719;BME280;14326;50.794;6.060;2023-04-24T13:32:33;98929.25;;;11.85;74.24
26719;BME280;14326;50.794;6.060;2023-04-24T13:35:00;98939.91;;;11.88;73.16
26719;BME280;14326;50.794;6.060;2023-04-24T13:37:27;98934.53;;;11.94;74.95
26719;BME280;14326;50.794;6.060;2023-04-24T13:39:54;98926.47;;;12.00;75.25
26719;BME280;14326;50.794;6.060;2023-04-24T13:42:20;98925.50;;;12.10;74.77
26719;BME280;14326;50.794;6.060;2023-04-24T13:44:47;98921.84;;;12.23;73.90
26719;BME280;14326;50.794;6.060;2023-04-24T13:47:15;98922.56;;;12.42;73.63
26719;BME280;14326;50.794;6.060;2023-04-24T13:49:42;98923.22;;;12.61;72.05
26719;BME280;14326;50.794;6.060;2023-04-24T13:52:08;98930.34;;;12.65;71.34
26719;BME280;14326;50.794;6.060;2023-04-24T13:54:35;98929.38;;;12.72;71.59
26719;BME280;14326;50.794;6.060;2023-04-24T13:57:03;98917.72;;;12.79;72.17
26719;BME280;14326;50.794;6.060;2023-04-24T13:59:38;98915.88;;;12.84;71.98
26719;BME280;14326;50.794;6.060;2023-04-24T14:02:25;98910.53;;;12.84;71.34
26719;BME280;14326;50.794;6.060;2023-04-24T14:04:52;98906.06;;;12.85;68.98
26719;BME280;14326;50.794;6.060;2023-04-24T14:07:24;98900.59;;;12.97;70.89
26719;BME280;14326;50.794;6.060;2023-04-24T14:09:51;98906.69;;;13.13;70.31
26719;BME280;14326;50.794;6.060;2023-04-24T14:12:24;98903.72;;;13.35;68.64
26719;BME280;14326;50.794;6.060;2023-04-24T14:15:10;98897.16;;;13.56;68.07
26719;BME280;14326;50.794;6.060;2023-04-24T14:17:44;98884.69;;;13.58;65.63
26719;BME280;14326;50.794;6.060;2023-04-24T14:20:12;98888.50;;;13.39;64.14
26719;BME280;14326;50.794;6.060;2023-04-24T14:22:40;98886.06;;;13.25;62.30
26719;BME280;14326;50.794;6.060;2023-04-24T14:25:10;98894.81;;;13.36;63.90
26719;BME280;14326;50.794;6.060;2023-04-24T14:27:43;98895.44;;;13.53;64.53
26719;BME280;14326;50.794;6.060;2023-04-24T14:30:13;98890.91;;;13.60;63.50
26719;BME280;14326;50.794;6.060;2023-04-24T14:32:42;98890.19;;;13.47;62.50
26719;BME280;14326;50.794;6.060;2023-04-24T14:35:13;98888.50;;;13.42;62.80
26719;BME280;14326;50.794;6.060;2023-04-24T14:37:48;98888.41;;;13.48;62.39